Millbrae, California
Current Conditions -  °F | °C
As of 12:56 PM on Monday 24 Nov 2014 (Local Time) from KSFO Reporting Station
Few Clouds Few Clouds  
Wind Chill: 62°   Ceiling: Unl
Heat Index: 62°   Visibility: 10mi
Dew Point: 46°   Wind: 0mph
Humidity: 56%   Direction: NA
Pressure: 30.36"   Gusts: NA
Location:  37.6°N, 122.39°W
Report Text: KSFO 242056Z 00000KT 10SM FEW200 17/08 A3036 RMK AO2 SLP281 T01670078 58017
Loading
Personal Weather Stations






























Interactive Weather Map New forecast layout! Learn more

10-Day Weather Forecast

Advertisements
Track Severe Weather on mobile